EW2874 Weather Reports


Display with metric or nautical units.
time (UTC)temp
F
wind
direction
speed
MPH
gust
MPH
rain 1hr
in
rain 24hr
in
rain mn
in
humidity
%
barometer
mb
20180919011454 71 51 9.0 21.0 0.00 0.00 0.00 91 1012.6
20180919011018 71 26 9.0 14.0 0.00 0.00 0.00 91 1012.6
20180919010507 72 59 8.0 13.0 0.00 0.00 0.00 90 1012.4
20180919010000 72 33 7.0 11.0 0.00 0.00 0.00 90 1012.3
20180919005452 72 78 7.0 12.0 0.00 0.00 0.00 89 1012.1
20180919004948 72 86 8.0 12.0 0.00 0.00 0.00 88 1012.0
20180919004457 73 63 8.0 13.0 0.00 0.00 0.00 88 1011.9
20180919003937 73 53 10.0 15.0 0.00 0.00 0.00 87 1012.0
20180919003513 73 86 10.0 15.0 0.00 0.00 0.00 86 1012.0
20180919002955 73 57 10.0 15.0 0.00 0.00 0.00 85 1012.2
20180919002429 74 49 10.0 16.0 0.00 0.00 0.00 84 1012.2
20180919001940 74 63 11.0 20.0 0.00 0.00 0.00 84 1012.2
20180919001423 74 59 11.0 20.0 0.00 0.00 0.00 84 1012.3
20180919000928 74 61 11.0 18.0 0.00 0.00 0.00 84 1012.2
20180919000414 74 46 11.0 18.0 0.00 0.00 0.00 84 1012.3
20180918235919 74 57 12.0 19.0 0.00 0.00 0.00 83 1012.2
20180918234920 75 34 12.0 22.0 0.00 0.00 0.00 83 1012.1
20180918234425 75 71 12.0 22.0 0.00 0.00 0.00 82 1011.9
20180918233928 75 28 12.0 21.0 0.00 0.00 0.00 82 1012.1
20180918233437 76 56 11.0 21.0 0.00 0.00 0.00 82 1012.1
20180918232914 76 56 10.0 18.0 0.00 0.00 0.00 81 1012.2
20180918232428 76 61 10.0 21.0 0.00 0.00 0.00 81 1012.2
20180918231916 76 56 12.0 21.0 0.00 0.00 0.00 80 1011.9
20180918231420 77 63 13.0 21.0 0.00 0.00 0.00 80 1011.9
20180918230911 77 49 13.0 22.0 0.00 0.00 0.00 80 1011.8
20180918230411 77 88 12.0 22.0 0.00 0.00 0.00 79 1011.9
20180918225859 77 59 12.0 19.0 0.00 0.00 0.00 78 1011.6
20180918225403 78 51 12.0 22.0 0.00 0.00 0.00 77 1011.6
20180918224905 78 42 13.0 22.0 0.00 0.00 0.00 77 1011.4
20180918224402 78 27 13.0 24.0 0.00 0.00 0.00 76 1011.4
20180918223904 79 29 12.0 21.0 0.00 0.00 0.00 75 1011.4
20180918223351 79 65 13.0 23.0 0.00 0.00 0.00 75 1011.3
20180918222853 79 50 15.0 23.0 0.00 0.00 0.00 75 1011.4
20180918222357 79 84 14.0 23.0 0.00 0.00 0.00 74 1011.4
20180918221848 79 39 13.0 23.0 0.00 0.00 0.00 75 1010.9
20180918221436 79 58 13.0 21.0 0.00 0.00 0.00 75 1010.9
20180918220911 79 72 14.0 24.0 0.00 0.00 0.00 75 1011.0
20180918220349 79 65 14.0 24.0 0.00 0.00 0.00 74 1011.1
20180918215854 79 49 13.0 24.0 0.00 0.00 0.00 74 1010.8
20180918215349 79 46 15.0 26.0 0.00 0.00 0.00 74 1010.9
20180918214859 78 64 16.0 26.0 0.00 0.00 0.00 74 1011.0
20180918214354 79 42 16.0 26.0 0.00 0.00 0.00 73 1011.0
20180918213902 80 21 15.0 24.0 0.00 0.00 0.00 69 1010.9
20180918213355 82 35 14.0 24.0 0.00 0.00 0.00 64 1010.7
20180918212852 86 5 11.0 21.0 0.00 0.00 0.00 57 1010.7
20180918212337 92 34 4.0 19.0 0.00 0.00 0.00 51 1010.5
20180918211856 93 326 2.0 7.0 0.00 0.00 0.00 49 1010.4
20180918211415 92 180 2.0 6.0 0.00 0.00 0.00 50 1010.2
20180918210748 92 228 4.0 11.0 0.00 0.00 0.00 48 1010.2
20180918210110 93 235 5.0 19.0 0.00 0.00 0.00 50 1010.1
20180918203132 93 246 4.0 12.0 0.00 0.00 0.00 47 1010.3
20180918202647 94 192 3.0 6.0 0.00 0.00 0.00 48 1010.4
20180918202129 94 242 2.0 6.0 0.00 0.00 0.00 48 1010.5
20180918201622 94 262 3.0 7.0 0.00 0.00 0.00 47 1010.6
20180918201123 94 194 4.0 7.0 0.00 0.00 0.00 48 1010.5
20180918200621 94 180 4.0 8.0 0.00 0.00 0.00 48 1010.6
20180918200120 93 276 5.0 9.0 0.00 0.00 0.00 48 1010.6
20180918195624 93 253 5.0 9.0 0.00 0.00 0.00 49 1010.6
20180918195141 93 229 4.0 9.0 0.00 0.00 0.00 49 1010.6
20180918194620 93 240 5.0 9.0 0.00 0.00 0.00 50 1010.7
20180918194114 92 224 6.0 10.0 0.00 0.00 0.00 50 1010.8
20180918193628 92 250 6.0 12.0 0.00 0.00 0.00 50 1010.9
20180918193055 92 226 6.0 12.0 0.00 0.00 0.00 52 1009.0
20180918192625 92 240 3.0 10.0 0.00 0.00 0.00 56 1010.9
20180918192114 92 208 3.0 6.0 0.00 0.00 0.00 53 1011.1
20180918191619 92 194 4.0 7.0 0.00 0.00 0.00 55 1011.2
20180918191529 91 185 3.0 7.0 0.00 0.00 0.00 54 1009.3
20180918191111 92 295 6.0 14.0 0.00 0.00 0.00 52 1011.3
20180918190609 92 276 5.0 14.0 0.00 0.00 0.00 52 1011.4
20180918190111 92 207 3.0 13.0 0.00 0.00 0.00 55 1011.4
20180918190044 91 207 2.0 13.0 0.00 0.00 0.00 55 1009.6
20180918185552 91 145 3.0 8.0 0.00 0.00 0.00 55 1011.6
20180918185051 91 198 5.0 8.0 0.00 0.00 0.00 55 1011.7
20180918184558 92 286 5.0 8.0 0.00 0.00 0.00 54 1011.8
20180918184555 91 265 5.0 8.0 0.00 0.00 0.00 53 1009.8
20180918184102 92 225 6.0 11.0 0.00 0.00 0.00 53 1011.9
20180918183632 92 244 6.0 11.0 0.00 0.00 0.00 53 1012.0
20180918183042 91 246 5.0 11.0 0.00 0.00 0.00 55 1012.2
20180918183010 91 213 4.0 11.0 0.00 0.00 0.00 54 1010.2
20180918182551 91 234 6.0 11.0 0.00 0.00 0.00 54 1012.2
20180918182043 91 187 5.0 11.0 0.00 0.00 0.00 54 1012.2
20180918181545 91 199 5.0 10.0 0.00 0.00 0.00 55 1012.3
20180918181048 91 227 4.0 10.0 0.00 0.00 0.00 54 1012.4
20180918180537 91 234 4.0 13.0 0.00 0.00 0.00 56 1012.4
20180918180046 91 248 6.0 14.0 0.00 0.00 0.00 54 1012.4
20180918175539 90 234 6.0 14.0 0.00 0.00 0.00 55 1012.5
20180918175041 90 254 6.0 12.0 0.00 0.00 0.00 55 1012.5
20180918174603 90 215 7.0 12.0 0.00 0.00 0.00 57 1012.5
20180918174027 90 242 6.0 12.0 0.00 0.00 0.00 57 1012.6
20180918173519 90 245 5.0 12.0 0.00 0.00 0.00 56 1012.7
20180918173021 90 236 5.0 9.0 0.00 0.00 0.00 57 1012.7
20180918172522 90 227 5.0 9.0 0.00 0.00 0.00 57 1012.8
20180918172000 90 223 5.0 9.0 0.00 0.00 0.00 58 1012.7
20180918171532 89 196 4.0 10.0 0.00 0.00 0.00 60 1012.8
20180918170925 89 202 4.0 10.0 0.00 0.00 0.00 59 1012.8
20180918170424 89 211 4.0 9.0 0.00 0.00 0.00 59 1012.8
20180918165909 89 180 4.0 9.0 0.00 0.00 0.00 61 1012.9
20180918165424 89 213 4.0 9.0 0.00 0.00 0.00 62 1013.0
20180918164923 88 200 5.0 9.0 0.00 0.00 0.00 62 1013.0
20180918164352 88 205 5.0 10.0 0.00 0.00 0.00 61 1013.0
20180918163908 88 203 5.0 10.0 0.00 0.00 0.00 61 1013.1
20180918163402 88 223 4.0 9.0 0.00 0.00 0.00 64 1013.0
20180918162848 88 160 4.0 9.0 0.00 0.00 0.00 62 1013.0
20180918162337 88 224 4.0 12.0 0.00 0.00 0.00 63 1013.1
20180918161818 87 248 4.0 12.0 0.00 0.00 0.00 64 1013.1
20180918161332 87 225 4.0 9.0 0.00 0.00 0.00 65 1013.1
20180918160824 87 220 4.0 10.0 0.00 0.00 0.00 65 1013.0
20180918160319 86 230 6.0 13.0 0.00 0.00 0.00 65 1013.0
20180918155813 86 216 6.0 14.0 0.00 0.00 0.00 66 1013.0
20180918155311 85 202 5.0 14.0 0.00 0.00 0.00 66 1013.0
20180918154806 85 180 5.0 11.0 0.00 0.00 0.00 68 1013.1
20180918154302 85 184 5.0 9.0 0.00 0.00 0.00 69 1013.0
20180918153812 84 240 5.0 10.0 0.00 0.00 0.00 68 1013.0
20180918153309 84 223 4.0 10.0 0.00 0.00 0.00 70 1013.0
20180918152754 83 202 3.0 8.0 0.00 0.00 0.00 72 1013.0
20180918152310 83 196 5.0 8.0 0.00 0.00 0.00 73 1013.0
20180918151812 82 180 6.0 11.0 0.00 0.00 0.00 74 1013.0
20180918151305 82 199 6.0 11.0 0.00 0.00 0.00 74 1012.9
20180918150805 81 194 6.0 11.0 0.00 0.00 0.00 76 1012.9
20180918150254 81 166 5.0 11.0 0.00 0.00 0.00 75 1012.9
20180918145748 81 211 4.0 9.0 0.00 0.00 0.00 75 1012.9
20180918145256 81 209 4.0 8.0 0.00 0.00 0.00 76 1013.0
20180918144755 80 198 5.0 9.0 0.00 0.00 0.00 78 1012.9
20180918144246 80 175 6.0 11.0 0.00 0.00 0.00 77 1013.0
20180918143758 80 150 6.0 12.0 0.00 0.00 0.00 77 1013.2
20180918143248 79 179 6.0 12.0 0.00 0.00 0.00 78 1013.1
20180918142758 79 217 6.0 12.0 0.00 0.00 0.00 77 1013.1
20180918142246 79 221 5.0 9.0 0.00 0.00 0.00 78 1013.1
20180918141743 79 171 4.0 8.0 0.00 0.00 0.00 79 1013.2
20180918141248 78 211 5.0 9.0 0.00 0.00 0.00 79 1013.2
20180918140754 78 222 6.0 10.0 0.00 0.00 0.00 80 1013.3
20180918140244 77 165 6.0 11.0 0.00 0.00 0.00 81 1013.2
20180918135756 77 178 5.0 11.0 0.00 0.00 0.00 82 1013.4
20180918134728 76 159 4.0 7.0 0.00 0.00 0.00 84 1013.5
20180918134238 76 173 4.0 8.0 0.00 0.00 0.00 85 1013.5
20180918133725 75 167 5.0 8.0 0.00 0.00 0.00 85 1013.6
20180918133346 75 179 4.0 7.0 0.00 0.00 0.00 86 1013.6
20180918132222 74 164 5.0 8.0 0.00 0.00 0.00 87 1013.6
20180918094110 72 167 2.0 5.0 0.00 0.00 0.00 90 1013.2
20180918093607 72 167 2.0 5.0 0.00 0.00 0.00 90 1013.2
20180918093127 72 170 3.0 5.0 0.00 0.00 0.00 90 1013.2
20180918093009 71 170 3.0 5.0 0.00 0.00 0.00 90 1011.4
20180918092620 72 163 3.0 5.0 0.00 0.00 0.00 90 1013.1
20180918092127 72 163 3.0 5.0 0.00 0.00 0.00 89 1013.1
20180918091122 72 170 2.0 5.0 0.00 0.00 0.00 89 1013.2
20180918090556 72 170 2.0 5.0 0.00 0.00 0.00 89 1013.2
20180918090102 72 166 3.0 5.0 0.00 0.00 0.00 89 1013.2
20180918090042 72 166 1.0 5.0 0.00 0.00 0.00 89 1011.5
20180918085614 72 165 3.0 5.0 0.00 0.00 0.00 89 1013.2
20180918085103 72 171 2.0 5.0 0.00 0.00 0.00 89 1013.2
20180918084606 72 171 3.0 5.0 0.00 0.00 0.00 89 1013.2
20180918084524 72 175 1.0 5.0 0.00 0.00 0.00 89 1011.4
20180918084056 72 170 3.0 5.0 0.00 0.00 0.00 89 1013.2
20180918083601 72 154 3.0 5.0 0.00 0.00 0.00 89 1013.3
20180918083039 72 165 3.0 5.0 0.00 0.00 0.00 89 1013.2
20180918082525 72 159 2.0 4.0 0.00 0.00 0.00 89 1013.4
20180918082025 72 167 2.0 4.0 0.00 0.00 0.00 89 1013.4
20180918081514 72 167 2.0 4.0 0.00 0.00 0.00 89 1013.4
20180918081007 72 157 2.0 4.0 0.00 0.00 0.00 89 1013.4
20180918080515 72 155 2.0 4.0 0.00 0.00 0.00 89 1013.4
20180918075936 72 150 2.0 5.0 0.00 0.00 0.00 89 1013.4
20180918075439 72 148 3.0 5.0 0.00 0.00 0.00 88 1013.5
20180918074935 72 161 3.0 5.0 0.00 0.00 0.00 88 1013.5
20180918074455 73 150 3.0 5.0 0.00 0.00 0.00 88 1013.5
20180918073939 73 163 3.0 5.0 0.00 0.00 0.00 88 1013.6
20180918072945 73 160 2.0 5.0 0.00 0.00 0.00 88 1013.5
20180918072436 73 165 2.0 5.0 0.00 0.00 0.00 87 1013.5
20180918071913 73 165 2.0 5.0 0.00 0.00 0.00 87 1013.5
20180918071400 73 165 2.0 3.0 0.00 0.00 0.00 87 1013.6
20180918070757 73 163 2.0 5.0 0.00 0.00 0.00 87 1013.6
20180918070252 73 161 3.0 5.0 0.00 0.00 0.00 87 1013.6
20180918070044 73 167 2.0 5.0 0.00 0.00 0.00 87 1011.9
20180918065746 74 167 3.0 5.0 0.00 0.00 0.00 87 1013.6
20180918065234 74 150 3.0 5.0 0.00 0.00 0.00 86 1013.6
20180918064801 74 164 4.0 6.0 0.00 0.00 0.00 86 1013.6
20180918064610 73 165 3.0 6.0 0.00 0.00 0.00 86 1011.9
20180918064249 74 169 4.0 6.0 0.00 0.00 0.00 86 1013.6
20180918063741 74 167 4.0 6.0 0.00 0.00 0.00 86 1013.6
20180918063241 74 161 4.0 6.0 0.00 0.00 0.00 86 1013.5
20180918062740 74 173 4.0 6.0 0.00 0.00 0.00 85 1013.6
20180918062251 74 171 4.0 6.0 0.00 0.00 0.00 85 1013.5
20180918061742 74 159 5.0 7.0 0.00 0.00 0.00 85 1013.5
20180918061241 74 162 4.0 7.0 0.00 0.00 0.00 85 1013.6
20180918060745 74 161 4.0 5.0 0.00 0.00 0.00 85 1013.6
20180918060241 74 167 4.0 6.0 0.00 0.00 0.00 85 1013.5
20180918055742 74 167 4.0 6.0 0.00 0.00 0.00 85 1013.5
20180918055234 74 171 4.0 6.0 0.00 0.00 0.00 85 1013.5
20180918054725 74 170 4.0 6.0 0.00 0.00 0.00 84 1013.5
20180918054635 74 178 3.0 6.0 0.00 0.00 0.00 84 1011.8
20180918054235 74 173 5.0 7.0 0.00 0.00 0.00 84 1013.5
20180918053741 74 164 5.0 7.0 0.00 0.00 0.00 85 1013.6
20180918053235 74 175 4.0 6.0 0.00 0.00 0.00 85 1013.5
20180918053114 74 159 4.0 6.0 0.00 0.00 0.00 85 1011.9
20180918052726 74 162 4.0 5.0 0.00 0.00 0.00 84 1013.5
20180918052220 74 155 3.0 5.0 0.00 0.00 0.00 84 1013.6
20180918051734 74 163 3.0 6.0 0.00 0.00 0.00 84 1013.6
20180918051222 74 175 4.0 6.0 0.00 0.00 0.00 84 1013.5
20180918050729 75 169 4.0 5.0 0.00 0.00 0.00 83 1013.4
20180918050230 75 163 3.0 5.0 0.00 0.00 0.00 83 1013.5
20180918045732 75 168 4.0 6.0 0.00 0.00 0.00 83 1013.6
20180918045223 75 167 3.0 6.0 0.00 0.00 0.00 83 1013.5
20180918044720 75 152 4.0 5.0 0.00 0.00 0.00 82 1013.5
20180918044554 75 153 3.0 7.0 0.00 0.00 0.00 82 1011.9
20180918044233 75 158 4.0 7.0 0.00 0.00 0.00 82 1013.6
20180918043728 75 164 5.0 7.0 0.00 0.00 0.00 82 1013.5
20180918043232 75 154 5.0 6.0 0.00 0.00 0.00 82 1013.5
20180918043117 75 165 4.0 6.0 0.00 0.00 0.00 82 1011.8
20180918042727 75 159 4.0 6.0 0.00 0.00 0.00 82 1013.5
20180918042226 75 172 4.0 6.0 0.00 0.00 0.00 81 1013.6
20180918041717 76 159 4.0 6.0 0.00 0.00 0.00 81 1013.6
20180918041608 75 165 4.0 6.0 0.00 0.00 0.00 81 1011.9
20180918041206 76 165 4.0 6.0 0.00 0.00 0.00 81 1013.6
20180918040700 76 163 4.0 6.0 0.00 0.00 0.00 81 1013.5
20180918040204 76 165 4.0 6.0 0.00 0.00 0.00 81 1013.4
20180918035709 76 155 3.0 5.0 0.00 0.00 0.00 81 1013.4
20180918035209 76 155 3.0 6.0 0.00 0.00 0.00 81 1013.5
20180918034704 76 136 3.0 6.0 0.00 0.00 0.00 80 1013.5
20180918034520 75 156 3.0 5.0 0.00 0.00 0.00 80 1011.8
20180918034203 76 153 3.0 5.0 0.00 0.00 0.00 80 1013.4
20180918033856 76 153 3.0 6.0 0.00 0.00 0.00 80 1013.4
20180918033449 76 162 3.0 6.0 0.00 0.00 0.00 79 1013.4
20180918033212 76 163 2.0 5.0 0.00 0.00 0.00 79 1011.7
20180918032712 77 154 3.0 6.0 0.00 0.00 0.00 79 1013.4
20180918032143 77 163 3.0 6.0 0.00 0.00 0.00 79 1013.4
20180918030911 77 153 4.0 6.0 0.00 0.00 0.00 78 1013.4
20180918022045 78 143 5.0 6.0 0.00 0.00 0.00 77 1013.2
20180918021546 78 141 5.0 7.0 0.00 0.00 0.00 77 1013.2
20180918021048 78 148 5.0 8.0 0.00 0.00 0.00 77 1013.2
20180918020541 78 132 5.0 8.0 0.00 0.00 0.00 77 1013.1
20180918020050 78 133 5.0 7.0 0.00 0.00 0.00 76 1013.1
20180918015547 78 138 5.0 7.0 0.00 0.00 0.00 76 1013.0
20180918015047 78 144 5.0 6.0 0.00 0.00 0.00 76 1012.9
20180918014542 78 151 5.0 6.0 0.00 0.00 0.00 76 1012.9
20180918014051 78 142 5.0 6.0 0.00 0.00 0.00 76 1012.8
20180918013526 78 140 5.0 6.0 0.00 0.00 0.00 76 1012.8
20180918013033 79 147 5.0 7.0 0.00 0.00 0.00 76 1012.7
20180918012535 79 143 5.0 7.0 0.00 0.00 0.00 75 1012.7
20180918012028 79 153 4.0 6.0 0.00 0.00 0.00 75 1012.7